createdAt,value
2019-01-04T00:00:24.068Z,0.00
2019-01-04T00:01:03.062Z,0.00
2019-01-04T00:02:03.078Z,0.00
2019-01-04T00:03:03.015Z,0.00
2019-01-04T00:04:03.123Z,0.00
2019-01-04T00:05:03.115Z,0.00
2019-01-04T00:06:03.172Z,0.00
2019-01-04T00:07:03.006Z,0.00
2019-01-04T00:08:05.492Z,0.00
2019-01-04T00:09:02.656Z,0.00
2019-01-04T00:10:02.185Z,0.00
2019-01-04T00:11:08.793Z,0.00
2019-01-04T00:12:02.730Z,0.00
2019-01-04T00:13:03.086Z,0.00
2019-01-04T00:14:02.761Z,0.00
2019-01-04T00:15:02.510Z,0.00
2019-01-04T00:16:01.853Z,0.00
2019-01-04T00:17:02.148Z,0.00
2019-01-04T00:18:02.487Z,0.00
2019-01-04T00:19:02.493Z,0.00
2019-01-04T00:20:02.503Z,0.00
2019-01-04T00:21:02.461Z,0.00
2019-01-04T00:22:02.463Z,0.00
2019-01-04T00:23:02.429Z,0.00
2019-01-04T00:24:10.995Z,0.00
2019-01-04T00:25:08.365Z,0.00
2019-01-04T00:26:02.175Z,0.00
2019-01-04T00:27:02.187Z,0.00
2019-01-04T00:28:02.619Z,0.00
2019-01-04T00:29:02.417Z,0.00
2019-01-04T00:30:02.391Z,0.00
2019-01-04T00:31:02.387Z,0.00
2019-01-04T00:32:02.110Z,0.00
2019-01-04T00:33:02.588Z,0.00
2019-01-04T00:34:02.474Z,0.00
2019-01-04T00:35:02.544Z,0.00
2019-01-04T00:36:02.391Z,0.00
2019-01-04T00:37:02.411Z,0.00
2019-01-04T00:38:02.435Z,0.00
2019-01-04T00:39:02.441Z,0.00
2019-01-04T00:40:02.382Z,0.00
2019-01-04T00:41:02.420Z,0.00
2019-01-04T00:42:02.347Z,0.00
2019-01-04T00:43:02.145Z,0.00
2019-01-04T00:44:02.847Z,0.00
2019-01-04T00:45:02.640Z,0.00
2019-01-04T00:46:02.847Z,0.00
2019-01-04T00:47:02.778Z,0.00
2019-01-04T00:48:30.195Z,0.00
2019-01-04T00:50:17.350Z,0.00
2019-01-04T00:51:17.394Z,0.00
2019-01-04T00:53:11.455Z,0.00
2019-01-04T00:54:11.864Z,0.00
2019-01-04T00:55:12.061Z,0.00
2019-01-04T00:56:11.985Z,0.00
2019-01-04T00:57:11.928Z,0.00
2019-01-04T00:58:11.974Z,0.00
2019-01-04T00:59:11.989Z,0.00
2019-01-04T01:00:11.958Z,0.00
2019-01-04T01:01:11.992Z,0.00
2019-01-04T01:02:11.942Z,0.00
2019-01-04T01:03:12.007Z,0.00
2019-01-04T01:04:12.035Z,0.00
2019-01-04T01:05:11.915Z,0.00
2019-01-04T01:06:11.960Z,0.00
2019-01-04T01:07:11.955Z,0.00
2019-01-04T01:08:11.955Z,0.00
2019-01-04T01:09:11.992Z,0.00
2019-01-04T01:10:11.979Z,0.00
2019-01-04T01:11:11.942Z,0.00
2019-01-04T01:12:12.013Z,0.00
2019-01-04T01:13:11.929Z,0.00
2019-01-04T01:14:12.032Z,0.00
2019-01-04T01:15:12.033Z,0.00
2019-01-04T01:16:12.027Z,0.00
2019-01-04T01:17:12.011Z,0.00
2019-01-04T01:18:11.363Z,0.00
2019-01-04T01:19:11.425Z,0.00
2019-01-04T01:20:11.782Z,0.00
2019-01-04T01:21:13.509Z,0.00
2019-01-04T01:22:11.431Z,0.00
2019-01-04T01:24:59.127Z,0.00
2019-01-04T01:25:59.077Z,0.00
2019-01-04T01:27:53.715Z,0.00
2019-01-04T01:28:54.208Z,0.00
2019-01-04T01:30:48.265Z,0.00
2019-01-04T01:31:49.327Z,0.00
2019-01-04T01:33:42.578Z,0.00
2019-01-04T01:34:42.886Z,0.00
2019-01-04T01:36:37.546Z,0.00
2019-01-04T01:37:37.579Z,0.00
2019-01-04T01:39:31.790Z,0.00
2019-01-04T01:40:32.092Z,0.00
2019-01-04T01:42:27.075Z,0.00
2019-01-04T01:43:27.229Z,0.00
2019-01-04T01:45:21.070Z,0.00
2019-01-04T01:46:21.431Z,0.00
2019-01-04T01:48:15.997Z,0.00
2019-01-04T01:49:16.091Z,0.00
2019-01-04T01:51:10.667Z,0.00
2019-01-04T01:52:11.158Z,0.00
2019-01-04T01:54:05.979Z,0.00
2019-01-04T01:55:06.126Z,0.00
2019-01-04T01:56:59.651Z,0.00
2019-01-04T01:58:00.157Z,0.00
2019-01-04T01:59:54.824Z,0.00
2019-01-04T02:00:54.870Z,0.00
2019-01-04T02:02:49.302Z,0.00
2019-01-04T02:03:49.455Z,0.00
2019-01-04T02:05:44.562Z,0.00
2019-01-04T02:06:44.571Z,0.00
2019-01-04T02:08:38.494Z,0.00
2019-01-04T02:09:38.652Z,0.00
2019-01-04T02:11:33.392Z,0.00
2019-01-04T02:12:33.402Z,0.00
2019-01-04T02:13:33.711Z,0.00
2019-01-04T02:14:33.292Z,0.00
2019-01-04T02:15:33.770Z,0.00
2019-01-04T02:16:32.891Z,0.00
2019-01-04T02:17:33.279Z,0.00
2019-01-04T02:18:33.284Z,0.00
2019-01-04T02:19:33.192Z,0.00
2019-01-04T02:20:35.679Z,0.00
2019-01-04T02:21:32.847Z,0.00
2019-01-04T02:22:33.323Z,0.00
2019-01-04T02:23:33.794Z,0.00
2019-01-04T02:24:33.292Z,0.00
2019-01-04T02:25:33.895Z,0.00
2019-01-04T02:26:32.938Z,0.00
2019-01-04T02:27:33.823Z,0.00
2019-01-04T02:28:33.746Z,0.00
2019-01-04T02:29:33.248Z,0.00
2019-01-04T02:30:33.788Z,0.00
2019-01-04T02:31:33.892Z,0.00
2019-01-04T02:32:33.784Z,0.00
2019-01-04T02:33:33.814Z,0.00
2019-01-04T02:34:33.766Z,0.00
2019-01-04T02:35:33.591Z,0.00
2019-01-04T02:36:39.640Z,0.00
2019-01-04T02:37:33.342Z,0.00
2019-01-04T02:38:33.358Z,0.00
2019-01-04T02:39:35.298Z,0.00
2019-01-04T02:40:39.272Z,0.00
2019-01-04T02:41:33.375Z,0.00
2019-01-04T02:42:33.481Z,0.00
2019-01-04T02:43:33.193Z,0.00
2019-01-04T02:44:33.373Z,0.00
2019-01-04T02:45:33.426Z,0.00
2019-01-04T02:46:33.344Z,0.00
2019-01-04T02:47:33.432Z,0.00
2019-01-04T02:48:32.883Z,0.00
2019-01-04T02:49:33.420Z,0.00
2019-01-04T02:50:33.417Z,0.00
2019-01-04T02:51:33.114Z,0.00
2019-01-04T02:52:33.818Z,0.00
2019-01-04T02:53:33.098Z,0.00
2019-01-04T02:54:33.088Z,0.00
2019-01-04T02:55:33.165Z,0.00
2019-01-04T02:56:33.256Z,0.00
2019-01-04T02:57:33.332Z,0.00
2019-01-04T02:58:33.268Z,0.00
2019-01-04T02:59:47.318Z,0.00
2019-01-04T03:00:35.367Z,0.00
2019-01-04T03:01:33.357Z,0.00
2019-01-04T03:02:33.277Z,0.00
2019-01-04T03:03:33.352Z,0.00
2019-01-04T03:04:34.340Z,0.00
2019-01-04T03:05:33.434Z,0.00
2019-01-04T03:06:33.346Z,0.00
2019-01-04T03:07:33.396Z,0.00
2019-01-04T03:08:32.763Z,0.00
2019-01-04T03:09:33.386Z,0.00
2019-01-04T03:10:33.400Z,0.00
2019-01-04T03:11:33.315Z,0.00
2019-01-04T03:12:33.343Z,0.00
2019-01-04T03:13:33.024Z,0.00
2019-01-04T03:14:33.140Z,0.00
2019-01-04T03:15:33.109Z,0.00
2019-01-04T03:16:33.142Z,0.00
2019-01-04T03:17:33.143Z,0.00
2019-01-04T03:18:33.182Z,0.00
2019-01-04T03:19:32.549Z,0.00
2019-01-04T03:20:33.132Z,0.00
2019-01-04T03:21:32.669Z,0.00
2019-01-04T03:22:32.700Z,0.00
2019-01-04T03:23:34.292Z,0.00
2019-01-04T03:24:35.225Z,0.00
2019-01-04T03:25:33.299Z,0.00
2019-01-04T03:26:33.295Z,0.00
2019-01-04T03:27:33.300Z,0.00
2019-01-04T03:28:33.360Z,0.00
2019-01-04T03:29:33.191Z,0.00
2019-01-04T03:30:34.674Z,0.00
2019-01-04T03:31:34.742Z,0.00
2019-01-04T03:32:32.929Z,0.00
2019-01-04T03:33:32.888Z,0.00
2019-01-04T03:34:32.888Z,0.00
2019-01-04T03:35:32.885Z,0.00
2019-01-04T03:36:33.361Z,0.00
2019-01-04T03:37:32.469Z,0.00
2019-01-04T03:38:32.859Z,0.00
2019-01-04T03:39:34.903Z,0.00
2019-01-04T03:40:32.882Z,0.00
2019-01-04T03:41:32.848Z,0.00
2019-01-04T03:42:32.784Z,0.00
2019-01-04T03:43:32.843Z,0.00
2019-01-04T03:44:32.841Z,0.00
2019-01-04T03:45:32.795Z,0.00
2019-01-04T03:46:32.940Z,0.00
2019-01-04T03:47:32.900Z,0.00
2019-01-04T03:48:32.427Z,0.00
2019-01-04T03:49:32.812Z,0.00
2019-01-04T03:50:32.833Z,0.00
2019-01-04T03:51:32.747Z,0.00
2019-01-04T03:52:32.626Z,0.00
2019-01-04T03:53:32.717Z,0.00
2019-01-04T03:54:33.090Z,0.00
2019-01-04T03:55:32.736Z,0.00
2019-01-04T03:56:32.694Z,0.00
2019-01-04T03:57:32.410Z,0.00
2019-01-04T03:58:32.760Z,0.00
2019-01-04T03:59:32.802Z,0.00
2019-01-04T04:00:32.737Z,0.00
2019-01-04T04:01:32.759Z,0.00
2019-01-04T04:02:32.759Z,0.00
2019-01-04T04:03:38.698Z,0.00
2019-01-04T04:04:32.702Z,0.00
2019-01-04T04:05:34.659Z,0.00
2019-01-04T04:06:32.926Z,0.00
2019-01-04T04:07:32.733Z,0.00
2019-01-04T04:08:32.631Z,0.00
2019-01-04T04:09:32.639Z,0.00
2019-01-04T04:10:32.649Z,0.00
2019-01-04T04:11:32.140Z,0.00
2019-01-04T04:12:34.623Z,0.00
2019-01-04T04:13:32.731Z,0.00
2019-01-04T04:14:32.591Z,0.00
2019-01-04T04:15:32.590Z,0.00
2019-01-04T04:16:32.663Z,0.00
2019-01-04T04:17:32.645Z,0.00
2019-01-04T04:18:32.096Z,0.00
2019-01-04T04:19:32.656Z,0.00
2019-01-04T04:20:32.627Z,0.00
2019-01-04T04:21:32.588Z,0.00
2019-01-04T04:22:32.625Z,0.00
2019-01-04T04:23:32.672Z,0.00
2019-01-04T04:24:38.891Z,0.00
2019-01-04T04:25:32.402Z,0.00
2019-01-04T04:26:34.120Z,0.00
2019-01-04T04:27:32.311Z,0.00
2019-01-04T04:28:32.306Z,0.00
2019-01-04T04:29:32.297Z,0.00
2019-01-04T04:30:32.328Z,0.00
2019-01-04T04:31:32.319Z,0.00
2019-01-04T04:32:32.217Z,0.00
2019-01-04T04:33:32.366Z,0.00
2019-01-04T04:34:32.203Z,0.00
2019-01-04T04:35:32.203Z,0.00
2019-01-04T04:36:34.311Z,0.00
2019-01-04T04:37:32.335Z,0.00
2019-01-04T04:38:38.231Z,0.00
2019-01-04T04:39:32.315Z,0.00
2019-01-04T04:40:32.340Z,0.00
2019-01-04T04:41:33.376Z,0.00
2019-01-04T04:42:32.176Z,0.00
2019-01-04T04:43:38.339Z,0.00
2019-01-04T04:44:32.335Z,0.00
2019-01-04T04:45:32.221Z,0.00
2019-01-04T04:46:32.331Z,0.00
2019-01-04T04:47:32.386Z,0.00
2019-01-04T04:48:32.507Z,0.00
2019-01-04T04:49:32.477Z,0.00
2019-01-04T04:50:32.229Z,0.00
2019-01-04T04:51:32.355Z,0.00
2019-01-04T04:52:32.100Z,0.00
2019-01-04T04:53:32.124Z,0.00
2019-01-04T04:54:32.490Z,0.00
2019-01-04T04:55:32.158Z,0.00
2019-01-04T04:56:32.150Z,0.00
2019-01-04T04:57:32.256Z,0.00
2019-01-04T04:58:31.740Z,0.00
2019-01-04T04:59:32.462Z,0.00
2019-01-04T05:00:34.452Z,0.00
2019-01-04T05:01:32.409Z,0.00
2019-01-04T05:02:32.455Z,0.00
2019-01-04T05:03:32.864Z,0.00
2019-01-04T05:04:32.269Z,0.00
2019-01-04T05:05:32.254Z,0.00
2019-01-04T05:06:32.553Z,0.00
2019-01-04T05:07:32.489Z,0.00
2019-01-04T05:08:32.884Z,0.00
2019-01-04T05:09:32.402Z,0.00
2019-01-04T05:10:32.219Z,0.00
2019-01-04T05:11:32.200Z,0.00
2019-01-04T05:12:32.310Z,0.00
2019-01-04T05:13:31.600Z,0.00
2019-01-04T05:14:32.249Z,0.00
2019-01-04T05:15:32.231Z,0.00
2019-01-04T05:16:32.175Z,0.00
2019-01-04T05:17:32.378Z,0.00
2019-01-04T05:18:32.345Z,0.00
2019-01-04T05:19:32.399Z,0.00
2019-01-04T05:20:31.937Z,0.00
2019-01-04T05:21:32.598Z,0.00
2019-01-04T05:22:31.948Z,0.00
2019-01-04T05:23:32.504Z,0.00
2019-01-04T05:24:32.535Z,0.00
2019-01-04T05:25:33.976Z,0.00
2019-01-04T05:26:31.930Z,0.00
2019-01-04T05:27:31.957Z,0.00
2019-01-04T05:28:31.907Z,0.00
2019-01-04T05:29:32.335Z,0.00
2019-01-04T05:30:31.803Z,0.00
2019-01-04T05:31:31.907Z,0.00
2019-01-04T05:32:31.938Z,0.00
2019-01-04T05:33:31.949Z,0.00
2019-01-04T05:34:31.825Z,0.00
2019-01-04T05:35:32.378Z,0.00
2019-01-04T05:36:31.897Z,0.00
2019-01-04T05:37:31.990Z,0.00
2019-01-04T05:38:31.931Z,0.00
2019-01-04T05:39:31.933Z,0.00
2019-01-04T05:40:31.935Z,0.00
2019-01-04T05:41:30.965Z,0.00
2019-01-04T05:42:32.433Z,0.00
2019-01-04T05:43:31.942Z,0.00
2019-01-04T05:44:32.958Z,0.00
2019-01-04T05:45:31.940Z,0.00
2019-01-04T05:46:31.929Z,0.00
2019-01-04T05:47:32.354Z,0.00
2019-01-04T05:48:31.940Z,0.00
2019-01-04T05:49:31.440Z,0.00
2019-01-04T05:50:31.967Z,0.00
2019-01-04T05:52:31.862Z,0.00
2019-01-04T05:53:31.895Z,0.00
2019-01-04T05:54:31.967Z,0.00
2019-01-04T05:55:32.394Z,0.00
2019-01-04T05:56:32.092Z,0.00
2019-01-04T05:57:31.876Z,0.00
2019-01-04T05:58:32.071Z,0.00
2019-01-04T05:59:31.955Z,0.00
2019-01-04T06:00:31.940Z,0.00
2019-01-04T06:01:32.363Z,0.00
2019-01-04T06:02:31.679Z,0.00
2019-01-04T06:03:31.679Z,0.00
2019-01-04T06:04:31.987Z,0.00
2019-01-04T06:05:33.573Z,0.00
2019-01-04T06:06:31.928Z,0.00
2019-01-04T06:07:31.435Z,0.00
2019-01-04T06:08:32.383Z,0.00
2019-01-04T06:09:31.689Z,0.00
2019-01-04T06:10:31.933Z,0.00
2019-01-04T06:11:32.226Z,0.00
2019-01-04T06:12:34.378Z,0.00
2019-01-04T06:13:31.708Z,0.00
2019-01-04T06:14:31.706Z,0.00
2019-01-04T06:15:33.385Z,0.00
2019-01-04T06:16:33.160Z,0.00
2019-01-04T06:17:33.210Z,0.00
2019-01-04T06:18:31.365Z,0.00
2019-01-04T06:19:31.520Z,0.00
2019-01-04T06:20:31.314Z,0.00
2019-01-04T06:21:31.448Z,0.00
2019-01-04T06:22:31.400Z,0.00
2019-01-04T06:23:31.430Z,0.00
2019-01-04T06:24:32.158Z,0.00
2019-01-04T06:25:31.885Z,0.00
2019-01-04T06:26:31.403Z,0.00
2019-01-04T06:27:31.356Z,0.00
2019-01-04T06:28:32.041Z,0.00
2019-01-04T06:29:31.871Z,0.00
2019-01-04T06:30:33.220Z,0.00
2019-01-04T06:31:31.360Z,0.00
2019-01-04T06:32:31.055Z,0.00
2019-01-04T06:33:31.490Z,0.00
2019-01-04T06:34:31.737Z,0.00
2019-01-04T06:35:31.668Z,0.00
2019-01-04T06:36:31.147Z,0.00
2019-01-04T06:37:30.983Z,0.00
2019-01-04T06:38:31.167Z,0.00
2019-01-04T06:39:31.184Z,0.00
2019-01-04T06:40:31.085Z,0.00
2019-01-04T06:41:31.228Z,0.00
2019-01-04T06:42:31.198Z,0.00
2019-01-04T06:43:31.864Z,0.00
2019-01-04T06:44:31.081Z,0.00
2019-01-04T06:45:30.583Z,0.00
2019-01-04T06:46:31.445Z,0.00
2019-01-04T06:47:31.480Z,0.00
2019-01-04T06:48:31.880Z,0.00
2019-01-04T06:49:33.212Z,0.00
2019-01-04T06:50:31.119Z,0.00
2019-01-04T06:51:31.438Z,0.00
2019-01-04T06:52:31.854Z,0.00
2019-01-04T06:53:31.856Z,0.00
2019-01-04T06:54:33.176Z,0.00
2019-01-04T06:55:31.208Z,0.00
2019-01-04T06:56:31.907Z,0.00
2019-01-04T06:57:31.059Z,0.00
2019-01-04T06:58:31.675Z,0.00
2019-01-04T06:59:30.990Z,0.00
2019-01-04T07:00:32.284Z,0.00
2019-01-04T07:01:30.996Z,0.00
2019-01-04T07:02:30.732Z,0.00
2019-01-04T07:03:31.119Z,0.00
2019-01-04T07:04:37.442Z,0.00
2019-01-04T07:05:31.894Z,0.00
2019-01-04T07:06:30.956Z,0.00
2019-01-04T07:07:31.273Z,0.00
2019-01-04T07:08:32.209Z,0.00
2019-01-04T07:09:31.474Z,0.00
2019-01-04T07:10:31.859Z,0.00
2019-01-04T07:11:32.585Z,0.00
2019-01-04T07:12:30.651Z,0.00
2019-01-04T07:13:31.380Z,0.00
2019-01-04T07:14:31.577Z,4.00
2019-01-04T07:15:32.942Z,4.00
2019-01-04T07:16:32.928Z,4.00
2019-01-04T07:17:31.359Z,4.00
2019-01-04T07:18:30.676Z,4.00
2019-01-04T07:19:30.822Z,4.00
2019-01-04T07:20:30.620Z,0.00
2019-01-04T07:21:30.883Z,4.00
2019-01-04T07:22:31.359Z,4.00
2019-01-04T07:23:30.627Z,8.00
2019-01-04T07:24:30.860Z,4.00
2019-01-04T07:25:30.905Z,8.00
2019-01-04T07:26:31.303Z,8.00
2019-01-04T07:27:30.949Z,8.00
2019-01-04T07:28:31.181Z,12.00
2019-01-04T07:29:30.546Z,12.00
2019-01-04T07:30:31.049Z,16.00
2019-01-04T07:31:30.934Z,16.00
2019-01-04T07:32:30.754Z,16.00
2019-01-04T07:33:30.671Z,16.00
2019-01-04T07:34:30.811Z,20.00
2019-01-04T07:35:30.812Z,16.00
2019-01-04T07:36:30.901Z,20.00
2019-01-04T07:37:31.365Z,24.00
2019-01-04T07:38:31.356Z,24.00
2019-01-04T07:39:30.552Z,28.00
2019-01-04T07:40:30.966Z,32.00
2019-01-04T07:41:30.757Z,32.00
2019-01-04T07:42:30.680Z,48.00
2019-01-04T07:43:30.746Z,52.00
2019-01-04T07:44:30.767Z,64.00
2019-01-04T07:45:30.904Z,80.00
2019-01-04T07:46:30.896Z,88.00
2019-01-04T07:47:31.047Z,96.00
2019-01-04T07:48:30.568Z,112.00
2019-01-04T07:49:30.145Z,120.00
2019-01-04T07:50:31.035Z,132.00
2019-01-04T07:51:30.869Z,148.00
2019-01-04T07:52:30.932Z,144.00
2019-01-04T07:53:30.960Z,152.00
2019-01-04T07:54:30.701Z,156.00
2019-01-04T07:55:30.937Z,168.00
2019-01-04T07:56:30.758Z,188.00
2019-01-04T07:57:31.383Z,212.00
2019-01-04T07:58:30.712Z,228.00
2019-01-04T07:59:30.768Z,228.00
2019-01-04T08:00:30.602Z,244.00
2019-01-04T08:01:30.310Z,228.00
2019-01-04T08:02:30.967Z,240.00
2019-01-04T08:03:31.069Z,260.00
2019-01-04T08:04:30.764Z,292.00
2019-01-04T08:05:30.219Z,288.00
2019-01-04T08:06:32.401Z,304.00
2019-01-04T08:07:30.437Z,308.00
2019-01-04T08:08:32.439Z,312.00
2019-01-04T08:09:32.423Z,316.00
2019-01-04T08:10:30.466Z,320.00
2019-01-04T08:11:30.458Z,364.00
2019-01-04T08:12:30.860Z,372.00
2019-01-04T08:13:30.951Z,364.00
2019-01-04T08:14:30.891Z,364.00
2019-01-04T08:15:30.154Z,340.00
2019-01-04T08:16:30.149Z,372.00
2019-01-04T08:17:30.854Z,404.00
2019-01-04T08:18:32.119Z,424.00
2019-01-04T08:19:30.139Z,416.00
2019-01-04T08:20:30.070Z,440.00
2019-01-04T08:21:30.906Z,516.00
2019-01-04T08:22:30.200Z,480.00
2019-01-04T08:23:30.881Z,524.00
2019-01-04T08:24:30.371Z,568.00
2019-01-04T08:25:30.899Z,676.00
2019-01-04T08:26:30.063Z,704.00
2019-01-04T08:27:30.409Z,800.00
2019-01-04T08:28:30.139Z,864.00
2019-01-04T08:29:30.743Z,864.00
2019-01-04T08:30:30.473Z,856.00
2019-01-04T08:31:30.456Z,904.00
2019-01-04T08:32:30.448Z,936.00
2019-01-04T08:33:30.199Z,944.00
2019-01-04T08:34:30.393Z,876.00
2019-01-04T08:35:30.036Z,848.00
2019-01-04T08:36:30.840Z,888.00
2019-01-04T08:37:30.893Z,908.00
2019-01-04T08:38:31.907Z,908.00
2019-01-04T08:39:29.990Z,860.00
2019-01-04T08:40:30.166Z,772.00
2019-01-04T08:41:30.438Z,696.00
2019-01-04T08:42:30.095Z,644.00
2019-01-04T08:43:30.710Z,640.00
2019-01-04T08:44:30.435Z,608.00
2019-01-04T08:45:30.455Z,604.00
2019-01-04T08:46:30.493Z,576.00
2019-01-04T08:47:29.959Z,544.00
2019-01-04T08:48:30.223Z,556.00
2019-01-04T08:49:29.940Z,672.00
2019-01-04T08:50:30.344Z,504.00
2019-01-04T08:51:30.058Z,440.00
2019-01-04T08:52:30.361Z,500.00
2019-01-04T08:53:31.140Z,528.00
2019-01-04T08:54:32.248Z,516.00
2019-01-04T08:55:30.109Z,684.00
2019-01-04T08:56:30.879Z,828.00
2019-01-04T08:57:30.101Z,908.00
2019-01-04T08:58:30.837Z,916.00
2019-01-04T08:59:30.033Z,976.00
2019-01-04T09:00:30.061Z,988.00
2019-01-04T09:01:30.367Z,1000.00
2019-01-04T09:02:30.527Z,984.00
2019-01-04T09:03:30.459Z,912.00
2019-01-04T09:04:30.900Z,884.00
2019-01-04T09:05:29.769Z,892.00
2019-01-04T09:06:29.805Z,900.00
2019-01-04T09:07:30.133Z,964.00
2019-01-04T09:08:29.471Z,904.00
2019-01-04T09:09:29.999Z,944.00
2019-01-04T09:10:30.403Z,896.00
2019-01-04T09:11:32.148Z,904.00
2019-01-04T09:12:32.358Z,800.00
2019-01-04T09:13:30.381Z,860.00
2019-01-04T09:14:29.407Z,912.00
2019-01-04T09:15:31.624Z,856.00
2019-01-04T09:16:31.343Z,804.00
2019-01-04T09:17:29.697Z,852.00
2019-01-04T09:18:29.731Z,932.00
2019-01-04T09:19:29.353Z,1164.00
2019-01-04T09:20:29.766Z,1420.00
2019-01-04T09:21:29.652Z,1384.00
2019-01-04T09:22:30.378Z,1220.00
2019-01-04T09:23:29.951Z,1436.00
2019-01-04T09:24:29.966Z,1344.00
2019-01-04T09:25:29.950Z,1512.00
2019-01-04T09:26:29.935Z,1620.00
2019-01-04T09:27:29.939Z,1588.00
2019-01-04T09:28:29.988Z,1636.00
2019-01-04T09:29:30.006Z,1672.00
2019-01-04T09:30:30.083Z,1856.00
2019-01-04T09:31:30.471Z,1924.00
2019-01-04T09:32:30.403Z,1844.00
2019-01-04T09:33:29.580Z,1964.00
2019-01-04T09:34:29.619Z,1948.00
2019-01-04T09:35:29.775Z,1936.00
2019-01-04T09:36:31.991Z,2128.00
2019-01-04T09:37:30.076Z,2044.00
2019-01-04T09:38:29.601Z,1924.00
2019-01-04T09:39:29.781Z,2088.00
2019-01-04T09:40:29.940Z,1636.00
2019-01-04T09:41:30.346Z,1476.00
2019-01-04T09:42:29.206Z,1688.00
2019-01-04T09:43:29.496Z,1356.00
2019-01-04T09:44:29.593Z,1604.00
2019-01-04T09:45:29.653Z,1732.00
2019-01-04T09:46:31.145Z,1616.00
2019-01-04T09:47:29.990Z,1320.00
2019-01-04T09:48:30.065Z,1188.00
2019-01-04T09:49:29.972Z,1388.00
2019-01-04T09:50:29.648Z,1468.00
2019-01-04T09:51:30.005Z,1196.00
2019-01-04T09:52:29.463Z,1068.00
2019-01-04T09:53:29.896Z,988.00
2019-01-04T09:54:29.945Z,896.00
2019-01-04T09:55:29.639Z,1064.00
2019-01-04T09:56:30.069Z,1244.00
2019-01-04T09:57:29.942Z,1308.00
2019-01-04T09:58:29.963Z,1140.00
2019-01-04T09:59:30.051Z,1116.00
2019-01-04T10:00:29.675Z,1164.00
2019-01-04T10:01:29.964Z,968.00
2019-01-04T10:02:30.015Z,1176.00
2019-01-04T10:03:29.975Z,1216.00
2019-01-04T10:04:29.525Z,892.00
2019-01-04T10:05:29.661Z,860.00
2019-01-04T10:06:31.382Z,940.00
2019-01-04T10:07:30.021Z,1380.00
2019-01-04T10:08:29.811Z,1360.00
2019-01-04T10:09:32.239Z,1028.00
2019-01-04T10:10:31.329Z,928.00
2019-01-04T10:11:29.853Z,844.00
2019-01-04T10:12:32.478Z,752.00
2019-01-04T10:13:29.257Z,756.00
2019-01-04T10:14:29.543Z,624.00
2019-01-04T10:15:29.318Z,556.00
2019-01-04T10:16:29.780Z,560.00
2019-01-04T10:17:29.498Z,620.00
2019-01-04T10:18:29.443Z,608.00
2019-01-04T10:19:31.398Z,716.00
2019-01-04T10:20:29.721Z,608.00
2019-01-04T10:21:29.465Z,616.00
2019-01-04T10:22:30.494Z,656.00
2019-01-04T10:23:29.193Z,676.00
2019-01-04T10:24:29.208Z,656.00
2019-01-04T10:25:30.176Z,676.00
2019-01-04T10:26:29.460Z,780.00
2019-01-04T10:27:29.282Z,716.00
2019-01-04T10:28:29.418Z,752.00
2019-01-04T10:29:29.198Z,724.00
2019-01-04T10:30:29.322Z,688.00
2019-01-04T10:31:29.272Z,616.00
2019-01-04T10:32:29.415Z,640.00
2019-01-04T10:33:29.897Z,752.00
2019-01-04T10:34:29.506Z,768.00
2019-01-04T10:35:30.677Z,928.00
2019-01-04T10:36:29.481Z,980.00
2019-01-04T10:37:29.911Z,808.00
2019-01-04T10:38:29.532Z,796.00
2019-01-04T10:39:29.486Z,808.00
2019-01-04T10:40:29.495Z,604.00
2019-01-04T10:41:31.779Z,796.00
2019-01-04T10:43:29.480Z,1032.00
2019-01-04T10:44:29.478Z,1300.00
2019-01-04T10:45:29.664Z,1308.00
2019-01-04T10:46:29.462Z,996.00
2019-01-04T10:47:29.875Z,916.00
2019-01-04T10:48:29.117Z,784.00
2019-01-04T10:49:31.906Z,708.00
2019-01-04T10:50:29.104Z,816.00
2019-01-04T10:51:28.786Z,788.00
2019-01-04T10:52:29.077Z,636.00
2019-01-04T10:53:29.904Z,704.00
2019-01-04T10:54:28.611Z,740.00
2019-01-04T10:55:29.503Z,672.00
2019-01-04T10:56:29.473Z,592.00
2019-01-04T10:57:29.568Z,596.00
2019-01-04T10:58:31.464Z,632.00
2019-01-04T10:59:29.485Z,536.00
2019-01-04T11:00:29.956Z,644.00
2019-01-04T11:01:29.419Z,840.00
2019-01-04T11:02:29.496Z,1100.00
2019-01-04T11:03:29.890Z,1088.00
2019-01-04T11:04:29.477Z,768.00
2019-01-04T11:05:29.912Z,572.00
2019-01-04T11:06:29.574Z,460.00
2019-01-04T11:07:29.533Z,436.00
2019-01-04T11:08:31.440Z,372.00
2019-01-04T11:09:29.493Z,404.00
2019-01-04T11:10:29.488Z,396.00
2019-01-04T11:11:29.453Z,404.00
2019-01-04T11:12:29.575Z,412.00
2019-01-04T11:13:29.910Z,364.00
2019-01-04T11:14:29.348Z,336.00
2019-01-04T11:15:28.922Z,324.00
2019-01-04T11:16:30.608Z,372.00
2019-01-04T11:17:30.452Z,516.00
2019-01-04T11:18:29.429Z,604.00
2019-01-04T11:19:28.661Z,504.00
2019-01-04T11:22:01.968Z,496.00
2019-01-04T11:23:02.595Z,524.00
2019-01-04T11:24:57.154Z,532.00
2019-01-04T11:27:12.403Z,636.00
2019-01-04T11:28:11.110Z,592.00
2019-01-04T11:30:05.972Z,572.00
2019-01-04T11:31:06.505Z,520.00
2019-01-04T11:33:00.786Z,496.00
2019-01-04T11:34:01.176Z,444.00
2019-01-04T11:35:55.295Z,508.00
2019-01-04T11:36:55.302Z,500.00
2019-01-04T11:37:55.876Z,480.00
2019-01-04T11:38:55.345Z,436.00
2019-01-04T11:39:55.837Z,444.00
2019-01-04T11:40:55.097Z,484.00
2019-01-04T11:41:55.779Z,436.00
2019-01-04T11:43:55.155Z,412.00
2019-01-04T11:44:56.270Z,380.00
2019-01-04T11:45:55.079Z,388.00
2019-01-04T11:46:55.428Z,376.00
2019-01-04T11:47:56.300Z,380.00
2019-01-04T11:48:54.952Z,388.00
2019-01-04T11:49:55.036Z,372.00
2019-01-04T11:50:54.995Z,272.00
2019-01-04T11:51:55.820Z,300.00
2019-01-04T11:52:55.789Z,344.00
2019-01-04T11:53:55.351Z,308.00
2019-01-04T11:55:30.819Z,372.00
2019-01-04T11:55:54.533Z,320.00
2019-01-04T11:56:55.339Z,288.00
2019-01-04T11:58:17.285Z,300.00
2019-01-04T11:58:55.811Z,312.00
2019-01-04T11:59:56.234Z,320.00
2019-01-04T12:00:54.872Z,424.00
2019-01-04T12:01:55.863Z,472.00
2019-01-04T12:02:55.230Z,528.00
2019-01-04T12:03:56.079Z,480.00
2019-01-04T12:04:55.771Z,504.00
2019-01-04T12:05:55.925Z,504.00
2019-01-04T12:08:28.493Z,544.00
2019-01-04T12:09:29.419Z,548.00
2019-01-04T12:11:24.554Z,528.00
2019-01-04T12:12:25.107Z,528.00
2019-01-04T12:14:19.195Z,516.00
2019-01-04T12:15:19.202Z,488.00
2019-01-04T12:17:13.477Z,472.00
2019-01-04T12:18:13.456Z,444.00
2019-01-04T12:20:08.100Z,420.00
2019-01-04T12:21:08.549Z,428.00
2019-01-04T12:23:03.154Z,544.00
2019-01-04T12:24:03.174Z,632.00
2019-01-04T12:25:57.444Z,608.00
2019-01-04T12:26:55.640Z,588.00
2019-01-04T12:28:51.967Z,648.00
2019-01-04T12:29:52.574Z,632.00
2019-01-04T12:31:47.100Z,592.00
2019-01-04T12:32:46.731Z,544.00
2019-01-04T12:34:41.330Z,544.00
2019-01-04T12:35:42.129Z,596.00
2019-01-04T12:37:36.022Z,528.00
2019-01-04T12:38:36.298Z,600.00
2019-01-04T12:40:30.538Z,504.00
2019-01-04T12:41:30.836Z,432.00
2019-01-04T12:43:25.644Z,416.00
2019-01-04T12:44:26.215Z,472.00
2019-01-04T12:46:20.355Z,476.00
2019-01-04T12:47:21.234Z,516.00
2019-01-04T12:49:14.843Z,624.00
2019-01-04T12:50:14.487Z,716.00
2019-01-04T12:52:09.640Z,756.00
2019-01-04T12:53:10.163Z,740.00
2019-01-04T12:55:04.278Z,732.00
2019-01-04T12:56:04.098Z,728.00
2019-01-04T12:57:58.099Z,544.00
2019-01-04T12:58:59.016Z,460.00
2019-01-04T13:00:53.738Z,384.00
2019-01-04T13:01:53.626Z,336.00
2019-01-04T13:03:47.828Z,388.00
2019-01-04T13:04:48.350Z,340.00
2019-01-04T13:06:42.647Z,420.00
2019-01-04T13:07:42.671Z,368.00
2019-01-04T13:09:36.524Z,496.00
2019-01-04T13:10:37.477Z,448.00
2019-01-04T13:12:31.995Z,336.00
2019-01-04T13:14:46.520Z,392.00
2019-01-04T13:15:46.459Z,320.00
2019-01-04T13:17:41.586Z,364.00
2019-01-04T13:18:41.585Z,360.00
2019-01-04T13:20:35.478Z,388.00
2019-01-04T13:21:36.216Z,532.00
2019-01-04T13:23:31.037Z,380.00
2019-01-04T13:24:30.780Z,364.00
2019-01-04T13:26:24.515Z,448.00
2019-01-04T13:27:24.806Z,476.00
2019-01-04T13:29:19.689Z,416.00
2019-01-04T13:30:19.727Z,396.00
2019-01-04T13:32:14.270Z,360.00
2019-01-04T13:33:13.647Z,364.00
2019-01-04T13:34:15.279Z,344.00
2019-01-04T13:35:14.443Z,328.00
2019-01-04T13:37:47.680Z,348.00
2019-01-04T13:38:47.636Z,372.00
2019-01-04T13:40:42.430Z,388.00
2019-01-04T13:41:42.974Z,508.00
2019-01-04T13:43:37.217Z,328.00
2019-01-04T13:44:37.268Z,332.00
2019-01-04T13:45:37.375Z,396.00
2019-01-04T13:46:36.979Z,376.00
2019-01-04T13:47:39.568Z,340.00
2019-01-04T13:48:36.289Z,360.00
2019-01-04T13:49:36.800Z,404.00
2019-01-04T13:50:37.894Z,384.00
2019-01-04T13:51:36.977Z,372.00
2019-01-04T13:52:37.080Z,284.00
2019-01-04T13:53:36.264Z,312.00